sensor_id;sensor_type;location;lat;lon;timestamp;temperature;humidity
22418;DHT22;11376;50.932;4.442;2023-10-19T00:00:48;16.90;99.90
22418;DHT22;11376;50.932;4.442;2023-10-19T00:03:16;16.90;99.90
22418;DHT22;11376;50.932;4.442;2023-10-19T00:05:42;16.80;99.90
22418;DHT22;11376;50.932;4.442;2023-10-19T00:08:08;16.80;99.90
22418;DHT22;11376;50.932;4.442;2023-10-19T00:10:48;16.90;99.90
22418;DHT22;11376;50.932;4.442;2023-10-19T00:13:21;16.80;99.90
22418;DHT22;11376;50.932;4.442;2023-10-19T00:15:47;16.80;99.90
22418;DHT22;11376;50.932;4.442;2023-10-19T00:18:15;16.90;99.90
22418;DHT22;11376;50.932;4.442;2023-10-19T00:20:40;16.80;99.90
22418;DHT22;11376;50.932;4.442;2023-10-19T00:23:06;16.90;99.90
22418;DHT22;11376;50.932;4.442;2023-10-19T00:25:32;16.90;99.90
22418;DHT22;11376;50.932;4.442;2023-10-19T00:28:00;16.90;99.90
22418;DHT22;11376;50.932;4.442;2023-10-19T00:30:29;16.90;99.90
22418;DHT22;11376;50.932;4.442;2023-10-19T00:32:58;16.80;99.90
22418;DHT22;11376;50.932;4.442;2023-10-19T00:35:35;16.80;99.90
22418;DHT22;11376;50.932;4.442;2023-10-19T00:38:01;16.90;99.90
22418;DHT22;11376;50.932;4.442;2023-10-19T00:40:52;16.90;99.90
22418;DHT22;11376;50.932;4.442;2023-10-19T00:43:31;16.80;99.90
22418;DHT22;11376;50.932;4.442;2023-10-19T00:46:07;16.80;99.90
22418;DHT22;11376;50.932;4.442;2023-10-19T00:48:48;16.80;99.90
22418;DHT22;11376;50.932;4.442;2023-10-19T00:51:21;16.80;99.90
22418;DHT22;11376;50.932;4.442;2023-10-19T00:54:03;16.80;99.90
22418;DHT22;11376;50.932;4.442;2023-10-19T00:56:35;16.80;99.90
22418;DHT22;11376;50.932;4.442;2023-10-19T00:59:01;16.80;99.90
22418;DHT22;11376;50.932;4.442;2023-10-19T01:01:40;16.80;99.90
22418;DHT22;11376;50.932;4.442;2023-10-19T01:04:11;16.80;99.90
22418;DHT22;11376;50.932;4.442;2023-10-19T01:06:43;16.80;99.90
22418;DHT22;11376;50.932;4.442;2023-10-19T01:09:12;16.70;99.90
22418;DHT22;11376;50.932;4.442;2023-10-19T01:11:42;16.70;99.90
22418;DHT22;11376;50.932;4.442;2023-10-19T01:14:23;16.70;99.90
22418;DHT22;11376;50.932;4.442;2023-10-19T01:16:53;16.70;99.90
22418;DHT22;11376;50.932;4.442;2023-10-19T01:19:25;16.60;99.90
22418;DHT22;11376;50.932;4.442;2023-10-19T01:21:52;16.60;99.90
22418;DHT22;11376;50.932;4.442;2023-10-19T01:24:23;16.60;99.90
22418;DHT22;11376;50.932;4.442;2023-10-19T01:27:06;16.60;99.90
22418;DHT22;11376;50.932;4.442;2023-10-19T01:29:35;16.60;99.90
22418;DHT22;11376;50.932;4.442;2023-10-19T01:32:03;16.60;99.90
22418;DHT22;11376;50.932;4.442;2023-10-19T01:34:34;16.60;99.90
22418;DHT22;11376;50.932;4.442;2023-10-19T01:37:00;16.50;99.90
22418;DHT22;11376;50.932;4.442;2023-10-19T01:39:31;16.60;99.90
22418;DHT22;11376;50.932;4.442;2023-10-19T01:41:57;16.60;99.90
22418;DHT22;11376;50.932;4.442;2023-10-19T01:44:23;16.60;99.90
22418;DHT22;11376;50.932;4.442;2023-10-19T01:46:50;16.50;99.90
22418;DHT22;11376;50.932;4.442;2023-10-19T01:49:16;16.60;99.90
22418;DHT22;11376;50.932;4.442;2023-10-19T01:52:01;16.50;99.90
22418;DHT22;11376;50.932;4.442;2023-10-19T01:54:28;16.50;99.90
22418;DHT22;11376;50.932;4.442;2023-10-19T01:56:55;16.50;99.90
22418;DHT22;11376;50.932;4.442;2023-10-19T01:59:24;16.50;99.90
22418;DHT22;11376;50.932;4.442;2023-10-19T02:01:55;16.50;99.90
22418;DHT22;11376;50.932;4.442;2023-10-19T02:04:23;16.50;99.90
22418;DHT22;11376;50.932;4.442;2023-10-19T02:06:49;16.50;99.90
22418;DHT22;11376;50.932;4.442;2023-10-19T02:09:17;16.50;99.90
22418;DHT22;11376;50.932;4.442;2023-10-19T02:11:48;16.50;99.90
22418;DHT22;11376;50.932;4.442;2023-10-19T02:14:15;16.50;99.90
22418;DHT22;11376;50.932;4.442;2023-10-19T02:16:42;16.50;99.90
22418;DHT22;11376;50.932;4.442;2023-10-19T02:19:18;16.50;99.90
22418;DHT22;11376;50.932;4.442;2023-10-19T02:21:47;16.40;99.90
22418;DHT22;11376;50.932;4.442;2023-10-19T02:24:14;16.40;99.90
22418;DHT22;11376;50.932;4.442;2023-10-19T02:26:43;16.40;99.90
22418;DHT22;11376;50.932;4.442;2023-10-19T02:29:10;16.40;99.90
22418;DHT22;11376;50.932;4.442;2023-10-19T02:31:36;16.30;99.90
22418;DHT22;11376;50.932;4.442;2023-10-19T02:34:10;16.40;99.90
22418;DHT22;11376;50.932;4.442;2023-10-19T02:36:36;16.30;99.90
22418;DHT22;11376;50.932;4.442;2023-10-19T02:39:05;16.30;99.90
22418;DHT22;11376;50.932;4.442;2023-10-19T02:41:38;16.20;99.90
22418;DHT22;11376;50.932;4.442;2023-10-19T02:44:08;16.20;99.90
22418;DHT22;11376;50.932;4.442;2023-10-19T02:46:43;16.20;99.90
22418;DHT22;11376;50.932;4.442;2023-10-19T02:49:10;16.20;99.90
22418;DHT22;11376;50.932;4.442;2023-10-19T02:51:41;16.10;99.90
22418;DHT22;11376;50.932;4.442;2023-10-19T02:54:10;16.00;99.90
22418;DHT22;11376;50.932;4.442;2023-10-19T02:56:44;16.00;99.90
22418;DHT22;11376;50.932;4.442;2023-10-19T02:59:15;16.00;99.90
22418;DHT22;11376;50.932;4.442;2023-10-19T03:01:42;16.00;99.90
22418;DHT22;11376;50.932;4.442;2023-10-19T03:04:11;15.90;99.90
22418;DHT22;11376;50.932;4.442;2023-10-19T03:06:41;15.90;99.90
22418;DHT22;11376;50.932;4.442;2023-10-19T03:09:08;15.90;99.90
22418;DHT22;11376;50.932;4.442;2023-10-19T03:11:56;15.80;99.90
22418;DHT22;11376;50.932;4.442;2023-10-19T03:14:39;15.70;99.90
22418;DHT22;11376;50.932;4.442;2023-10-19T03:17:04;15.70;99.90
22418;DHT22;11376;50.932;4.442;2023-10-19T03:19:33;15.80;99.90
22418;DHT22;11376;50.932;4.442;2023-10-19T03:22:00;15.80;99.90
22418;DHT22;11376;50.932;4.442;2023-10-19T03:24:26;15.80;99.90
22418;DHT22;11376;50.932;4.442;2023-10-19T03:27:05;15.80;99.90
22418;DHT22;11376;50.932;4.442;2023-10-19T03:29:50;15.80;99.90
22418;DHT22;11376;50.932;4.442;2023-10-19T03:32:21;15.80;99.90
22418;DHT22;11376;50.932;4.442;2023-10-19T03:34:54;15.90;99.90
22418;DHT22;11376;50.932;4.442;2023-10-19T03:37:26;15.80;99.90
22418;DHT22;11376;50.932;4.442;2023-10-19T03:39:55;15.90;99.90
22418;DHT22;11376;50.932;4.442;2023-10-19T03:42:27;15.90;99.90
22418;DHT22;11376;50.932;4.442;2023-10-19T03:44:58;15.90;99.90
22418;DHT22;11376;50.932;4.442;2023-10-19T03:47:25;15.90;99.90
22418;DHT22;11376;50.932;4.442;2023-10-19T03:50:03;15.90;99.90
22418;DHT22;11376;50.932;4.442;2023-10-19T03:52:34;15.90;99.90
22418;DHT22;11376;50.932;4.442;2023-10-19T03:55:03;15.90;99.90
22418;DHT22;11376;50.932;4.442;2023-10-19T03:57:36;15.90;99.90
22418;DHT22;11376;50.932;4.442;2023-10-19T04:00:07;15.90;99.90
22418;DHT22;11376;50.932;4.442;2023-10-19T04:02:36;15.90;99.90
22418;DHT22;11376;50.932;4.442;2023-10-19T04:05:04;15.90;99.90
22418;DHT22;11376;50.932;4.442;2023-10-19T04:07:30;15.90;99.90
22418;DHT22;11376;50.932;4.442;2023-10-19T04:09:58;15.90;99.90
22418;DHT22;11376;50.932;4.442;2023-10-19T04:12:43;15.90;99.90
22418;DHT22;11376;50.932;4.442;2023-10-19T04:15:09;15.90;99.90
22418;DHT22;11376;50.932;4.442;2023-10-19T04:17:40;15.90;99.90
22418;DHT22;11376;50.932;4.442;2023-10-19T04:20:08;15.90;99.90
22418;DHT22;11376;50.932;4.442;2023-10-19T04:22:52;15.90;99.90
22418;DHT22;11376;50.932;4.442;2023-10-19T04:25:19;15.90;99.90
22418;DHT22;11376;50.932;4.442;2023-10-19T04:27:46;15.90;99.90
22418;DHT22;11376;50.932;4.442;2023-10-19T04:30:13;15.90;99.90
22418;DHT22;11376;50.932;4.442;2023-10-19T04:32:44;15.90;99.90
22418;DHT22;11376;50.932;4.442;2023-10-19T04:35:11;15.90;99.90
22418;DHT22;11376;50.932;4.442;2023-10-19T04:37:38;15.90;99.90
22418;DHT22;11376;50.932;4.442;2023-10-19T04:40:11;15.90;99.90
22418;DHT22;11376;50.932;4.442;2023-10-19T04:42:38;15.90;99.90
22418;DHT22;11376;50.932;4.442;2023-10-19T04:45:04;15.90;99.90
22418;DHT22;11376;50.932;4.442;2023-10-19T04:47:31;15.90;99.90
22418;DHT22;11376;50.932;4.442;2023-10-19T04:49:58;15.90;99.90
22418;DHT22;11376;50.932;4.442;2023-10-19T04:52:24;15.90;99.90
22418;DHT22;11376;50.932;4.442;2023-10-19T04:54:49;15.90;99.90
22418;DHT22;11376;50.932;4.442;2023-10-19T04:57:15;15.90;99.90
22418;DHT22;11376;50.932;4.442;2023-10-19T04:59:40;15.90;99.90
22418;DHT22;11376;50.932;4.442;2023-10-19T05:02:10;15.90;99.90
22418;DHT22;11376;50.932;4.442;2023-10-19T05:04:36;16.00;99.90
22418;DHT22;11376;50.932;4.442;2023-10-19T05:07:01;15.90;99.90
22418;DHT22;11376;50.932;4.442;2023-10-19T05:09:29;15.90;99.90
22418;DHT22;11376;50.932;4.442;2023-10-19T05:11:55;15.90;99.90
22418;DHT22;11376;50.932;4.442;2023-10-19T05:14:22;16.00;99.90
22418;DHT22;11376;50.932;4.442;2023-10-19T05:16:48;15.90;99.90
22418;DHT22;11376;50.932;4.442;2023-10-19T05:19:14;15.90;99.90
22418;DHT22;11376;50.932;4.442;2023-10-19T05:21:39;16.00;99.90
22418;DHT22;11376;50.932;4.442;2023-10-19T05:24:06;16.00;99.90
22418;DHT22;11376;50.932;4.442;2023-10-19T05:26:33;16.00;99.90
22418;DHT22;11376;50.932;4.442;2023-10-19T05:28:59;16.00;99.90
22418;DHT22;11376;50.932;4.442;2023-10-19T05:31:24;16.00;99.90
22418;DHT22;11376;50.932;4.442;2023-10-19T05:33:50;16.00;99.90
22418;DHT22;11376;50.932;4.442;2023-10-19T05:36:16;16.00;99.90
22418;DHT22;11376;50.932;4.442;2023-10-19T05:38:43;16.00;99.90
22418;DHT22;11376;50.932;4.442;2023-10-19T05:41:09;16.00;99.90
22418;DHT22;11376;50.932;4.442;2023-10-19T05:43:36;16.00;99.90
22418;DHT22;11376;50.932;4.442;2023-10-19T05:46:02;16.00;99.90
22418;DHT22;11376;50.932;4.442;2023-10-19T05:48:27;16.00;99.90
22418;DHT22;11376;50.932;4.442;2023-10-19T05:50:53;16.00;99.90
22418;DHT22;11376;50.932;4.442;2023-10-19T05:53:19;16.00;99.90
22418;DHT22;11376;50.932;4.442;2023-10-19T05:55:50;16.00;99.90
22418;DHT22;11376;50.932;4.442;2023-10-19T05:58:16;16.00;99.90
22418;DHT22;11376;50.932;4.442;2023-10-19T06:00:42;16.00;99.90
22418;DHT22;11376;50.932;4.442;2023-10-19T06:03:08;16.10;99.90
22418;DHT22;11376;50.932;4.442;2023-10-19T06:05:33;16.00;99.90
22418;DHT22;11376;50.932;4.442;2023-10-19T06:07:59;16.00;99.90
22418;DHT22;11376;50.932;4.442;2023-10-19T06:10:27;16.00;99.90
22418;DHT22;11376;50.932;4.442;2023-10-19T06:12:52;16.00;99.90
22418;DHT22;11376;50.932;4.442;2023-10-19T06:15:19;16.00;99.90
22418;DHT22;11376;50.932;4.442;2023-10-19T06:17:47;16.00;99.90
22418;DHT22;11376;50.932;4.442;2023-10-19T06:20:14;16.00;99.90
22418;DHT22;11376;50.932;4.442;2023-10-19T06:22:50;16.00;99.90
22418;DHT22;11376;50.932;4.442;2023-10-19T06:25:20;16.00;99.90
22418;DHT22;11376;50.932;4.442;2023-10-19T06:27:49;16.00;99.90
22418;DHT22;11376;50.932;4.442;2023-10-19T06:30:16;15.90;99.90
22418;DHT22;11376;50.932;4.442;2023-10-19T06:32:51;15.90;99.90
22418;DHT22;11376;50.932;4.442;2023-10-19T06:35:18;15.90;99.90
22418;DHT22;11376;50.932;4.442;2023-10-19T06:37:44;15.90;99.90
22418;DHT22;11376;50.932;4.442;2023-10-19T06:40:10;15.90;99.90
22418;DHT22;11376;50.932;4.442;2023-10-19T06:42:46;15.90;99.90
22418;DHT22;11376;50.932;4.442;2023-10-19T06:45:15;15.90;99.90
22418;DHT22;11376;50.932;4.442;2023-10-19T06:47:46;15.90;99.90
22418;DHT22;11376;50.932;4.442;2023-10-19T06:50:14;15.90;99.90
22418;DHT22;11376;50.932;4.442;2023-10-19T06:52:41;15.80;99.90
22418;DHT22;11376;50.932;4.442;2023-10-19T06:55:09;15.80;99.90
22418;DHT22;11376;50.932;4.442;2023-10-19T06:57:42;15.80;99.90
22418;DHT22;11376;50.932;4.442;2023-10-19T07:00:10;15.80;99.90
22418;DHT22;11376;50.932;4.442;2023-10-19T07:02:40;15.80;99.90
22418;DHT22;11376;50.932;4.442;2023-10-19T07:05:07;15.80;99.90
22418;DHT22;11376;50.932;4.442;2023-10-19T07:07:36;15.90;99.90
22418;DHT22;11376;50.932;4.442;2023-10-19T07:10:02;15.80;99.90
22418;DHT22;11376;50.932;4.442;2023-10-19T07:12:29;15.80;99.90
22418;DHT22;11376;50.932;4.442;2023-10-19T07:14:54;15.80;99.90
22418;DHT22;11376;50.932;4.442;2023-10-19T07:17:20;15.80;99.90
22418;DHT22;11376;50.932;4.442;2023-10-19T07:19:45;15.80;99.90
22418;DHT22;11376;50.932;4.442;2023-10-19T07:22:14;15.80;99.90
22418;DHT22;11376;50.932;4.442;2023-10-19T07:24:40;15.80;99.90
22418;DHT22;11376;50.932;4.442;2023-10-19T07:27:07;15.80;99.90
22418;DHT22;11376;50.932;4.442;2023-10-19T07:29:33;15.80;99.90
22418;DHT22;11376;50.932;4.442;2023-10-19T07:32:02;15.80;99.90
22418;DHT22;11376;50.932;4.442;2023-10-19T07:34:31;15.80;99.90
22418;DHT22;11376;50.932;4.442;2023-10-19T07:36:58;15.90;99.90
22418;DHT22;11376;50.932;4.442;2023-10-19T07:39:26;15.80;99.90
22418;DHT22;11376;50.932;4.442;2023-10-19T07:41:55;15.90;99.90
22418;DHT22;11376;50.932;4.442;2023-10-19T07:44:21;15.90;99.90
22418;DHT22;11376;50.932;4.442;2023-10-19T07:46:46;16.00;99.90
22418;DHT22;11376;50.932;4.442;2023-10-19T07:49:12;16.00;99.90
22418;DHT22;11376;50.932;4.442;2023-10-19T07:51:47;16.00;99.90
22418;DHT22;11376;50.932;4.442;2023-10-19T07:54:13;16.10;99.90
22418;DHT22;11376;50.932;4.442;2023-10-19T07:56:39;16.10;99.90
22418;DHT22;11376;50.932;4.442;2023-10-19T07:59:05;16.20;99.90
22418;DHT22;11376;50.932;4.442;2023-10-19T08:01:32;16.20;99.90
22418;DHT22;11376;50.932;4.442;2023-10-19T08:03:58;16.20;99.90
22418;DHT22;11376;50.932;4.442;2023-10-19T08:06:23;16.30;99.90
22418;DHT22;11376;50.932;4.442;2023-10-19T08:08:49;16.40;99.90
22418;DHT22;11376;50.932;4.442;2023-10-19T08:11:15;16.40;99.90
22418;DHT22;11376;50.932;4.442;2023-10-19T08:13:42;16.40;99.90
22418;DHT22;11376;50.932;4.442;2023-10-19T08:16:08;16.50;99.90
22418;DHT22;11376;50.932;4.442;2023-10-19T08:18:34;16.50;99.90
22418;DHT22;11376;50.932;4.442;2023-10-19T08:21:03;16.60;99.90
22418;DHT22;11376;50.932;4.442;2023-10-19T08:23:29;16.80;99.90
22418;DHT22;11376;50.932;4.442;2023-10-19T08:25:57;16.80;99.90
22418;DHT22;11376;50.932;4.442;2023-10-19T08:28:22;16.70;99.90
22418;DHT22;11376;50.932;4.442;2023-10-19T08:30:48;16.70;99.90
22418;DHT22;11376;50.932;4.442;2023-10-19T08:33:24;16.80;99.90
22418;DHT22;11376;50.932;4.442;2023-10-19T08:35:52;16.90;99.90
22418;DHT22;11376;50.932;4.442;2023-10-19T08:38:19;17.00;99.90
22418;DHT22;11376;50.932;4.442;2023-10-19T08:40:45;17.00;99.90
22418;DHT22;11376;50.932;4.442;2023-10-19T08:43:11;17.00;99.90
22418;DHT22;11376;50.932;4.442;2023-10-19T08:45:39;17.00;99.90
22418;DHT22;11376;50.932;4.442;2023-10-19T08:48:05;17.00;99.90
22418;DHT22;11376;50.932;4.442;2023-10-19T08:50:34;17.10;99.90
22418;DHT22;11376;50.932;4.442;2023-10-19T08:53:02;17.10;99.90
22418;DHT22;11376;50.932;4.442;2023-10-19T08:55:31;17.20;99.90
22418;DHT22;11376;50.932;4.442;2023-10-19T08:57:57;17.20;99.90
22418;DHT22;11376;50.932;4.442;2023-10-19T09:00:26;17.20;99.90
22418;DHT22;11376;50.932;4.442;2023-10-19T09:02:55;17.20;99.90
22418;DHT22;11376;50.932;4.442;2023-10-19T09:05:25;17.40;99.90
22418;DHT22;11376;50.932;4.442;2023-10-19T09:07:52;17.40;99.90
22418;DHT22;11376;50.932;4.442;2023-10-19T09:10:24;17.40;99.90
22418;DHT22;11376;50.932;4.442;2023-10-19T09:13:04;17.40;99.90
22418;DHT22;11376;50.932;4.442;2023-10-19T09:15:33;17.50;99.90
22418;DHT22;11376;50.932;4.442;2023-10-19T09:18:23;17.50;99.90
22418;DHT22;11376;50.932;4.442;2023-10-19T09:20:51;17.40;99.90
22418;DHT22;11376;50.932;4.442;2023-10-19T09:23:22;17.70;99.90
22418;DHT22;11376;50.932;4.442;2023-10-19T09:25:49;17.70;99.90
22418;DHT22;11376;50.932;4.442;2023-10-19T09:28:15;17.70;99.90
22418;DHT22;11376;50.932;4.442;2023-10-19T09:30:43;17.80;99.90
22418;DHT22;11376;50.932;4.442;2023-10-19T09:33:09;17.70;99.90
22418;DHT22;11376;50.932;4.442;2023-10-19T09:35:35;17.70;99.90
22418;DHT22;11376;50.932;4.442;2023-10-19T09:38:04;17.50;99.90
22418;DHT22;11376;50.932;4.442;2023-10-19T09:40:32;17.70;99.90
22418;DHT22;11376;50.932;4.442;2023-10-19T09:43:04;17.80;99.90
22418;DHT22;11376;50.932;4.442;2023-10-19T09:45:36;17.90;99.90
22418;DHT22;11376;50.932;4.442;2023-10-19T09:48:06;17.90;99.90
22418;DHT22;11376;50.932;4.442;2023-10-19T09:50:33;18.00;99.90
22418;DHT22;11376;50.932;4.442;2023-10-19T09:52:58;18.30;99.90
22418;DHT22;11376;50.932;4.442;2023-10-19T09:55:33;18.00;99.90
22418;DHT22;11376;50.932;4.442;2023-10-19T10:00:30;17.90;99.90
22418;DHT22;11376;50.932;4.442;2023-10-19T10:02:59;17.90;99.90
22418;DHT22;11376;50.932;4.442;2023-10-19T10:10:44;17.80;99.90
22418;DHT22;11376;50.932;4.442;2023-10-19T10:13:36;17.90;99.90
22418;DHT22;11376;50.932;4.442;2023-10-19T10:16:02;18.00;99.90
22418;DHT22;11376;50.932;4.442;2023-10-19T10:18:32;18.10;99.90
22418;DHT22;11376;50.932;4.442;2023-10-19T10:21:14;18.50;99.90
22418;DHT22;11376;50.932;4.442;2023-10-19T10:23:58;19.00;99.90
22418;DHT22;11376;50.932;4.442;2023-10-19T10:26:27;19.20;99.90
22418;DHT22;11376;50.932;4.442;2023-10-19T10:29:12;19.20;99.90
22418;DHT22;11376;50.932;4.442;2023-10-19T10:31:49;19.30;99.90
22418;DHT22;11376;50.932;4.442;2023-10-19T10:37:00;19.50;99.90
22418;DHT22;11376;50.932;4.442;2023-10-19T10:39:28;19.50;99.90
22418;DHT22;11376;50.932;4.442;2023-10-19T10:41:56;19.40;99.90
22418;DHT22;11376;50.932;4.442;2023-10-19T10:44:36;19.40;99.90
22418;DHT22;11376;50.932;4.442;2023-10-19T10:47:08;19.60;99.90
22418;DHT22;11376;50.932;4.442;2023-10-19T10:49:34;19.90;99.90
22418;DHT22;11376;50.932;4.442;2023-10-19T10:52:00;20.00;99.90
22418;DHT22;11376;50.932;4.442;2023-10-19T10:54:26;20.20;99.90
22418;DHT22;11376;50.932;4.442;2023-10-19T10:56:52;20.00;99.90
22418;DHT22;11376;50.932;4.442;2023-10-19T10:59:17;19.90;99.90
22418;DHT22;11376;50.932;4.442;2023-10-19T11:01:43;19.90;99.90
22418;DHT22;11376;50.932;4.442;2023-10-19T11:04:10;20.00;99.90
22418;DHT22;11376;50.932;4.442;2023-10-19T11:06:50;20.00;99.90
22418;DHT22;11376;50.932;4.442;2023-10-19T11:09:15;19.80;99.90
22418;DHT22;11376;50.932;4.442;2023-10-19T11:11:45;19.70;99.90
22418;DHT22;11376;50.932;4.442;2023-10-19T11:14:11;19.70;99.90
22418;DHT22;11376;50.932;4.442;2023-10-19T11:16:38;19.60;99.90
22418;DHT22;11376;50.932;4.442;2023-10-19T11:19:08;19.40;99.90
22418;DHT22;11376;50.932;4.442;2023-10-19T11:21:36;19.50;99.90
22418;DHT22;11376;50.932;4.442;2023-10-19T11:24:02;19.80;99.90
22418;DHT22;11376;50.932;4.442;2023-10-19T11:26:27;20.00;99.90
22418;DHT22;11376;50.932;4.442;2023-10-19T11:28:58;20.20;99.90
22418;DHT22;11376;50.932;4.442;2023-10-19T11:31:24;20.10;99.90
22418;DHT22;11376;50.932;4.442;2023-10-19T11:33:51;19.70;99.90
22418;DHT22;11376;50.932;4.442;2023-10-19T11:36:18;19.70;99.90
22418;DHT22;11376;50.932;4.442;2023-10-19T11:38:48;19.80;99.90
22418;DHT22;11376;50.932;4.442;2023-10-19T11:41:15;19.70;99.90
22418;DHT22;11376;50.932;4.442;2023-10-19T11:43:42;19.70;99.90
22418;DHT22;11376;50.932;4.442;2023-10-19T11:46:08;19.60;99.90
22418;DHT22;11376;50.932;4.442;2023-10-19T11:48:36;19.80;99.90
22418;DHT22;11376;50.932;4.442;2023-10-19T11:51:05;19.50;99.90
22418;DHT22;11376;50.932;4.442;2023-10-19T11:53:35;19.70;99.90
22418;DHT22;11376;50.932;4.442;2023-10-19T11:56:03;19.50;99.90
22418;DHT22;11376;50.932;4.442;2023-10-19T11:58:33;19.20;99.90
22418;DHT22;11376;50.932;4.442;2023-10-19T12:01:00;19.40;99.90
22418;DHT22;11376;50.932;4.442;2023-10-19T12:03:26;19.10;99.90
22418;DHT22;11376;50.932;4.442;2023-10-19T12:05:52;19.00;99.90
22418;DHT22;11376;50.932;4.442;2023-10-19T12:08:21;19.00;99.90
22418;DHT22;11376;50.932;4.442;2023-10-19T12:10:47;18.70;99.90
22418;DHT22;11376;50.932;4.442;2023-10-19T12:13:13;18.50;99.90
22418;DHT22;11376;50.932;4.442;2023-10-19T12:15:39;18.60;99.90
22418;DHT22;11376;50.932;4.442;2023-10-19T12:18:04;18.70;99.90
22418;DHT22;11376;50.932;4.442;2023-10-19T12:20:33;18.70;99.90
22418;DHT22;11376;50.932;4.442;2023-10-19T12:23:00;18.50;99.90
22418;DHT22;11376;50.932;4.442;2023-10-19T12:25:26;18.40;99.90
22418;DHT22;11376;50.932;4.442;2023-10-19T12:27:56;18.50;99.90
22418;DHT22;11376;50.932;4.442;2023-10-19T12:30:23;18.30;99.90
22418;DHT22;11376;50.932;4.442;2023-10-19T12:32:52;18.30;99.90
22418;DHT22;11376;50.932;4.442;2023-10-19T12:35:18;18.40;99.90
22418;DHT22;11376;50.932;4.442;2023-10-19T12:37:50;18.30;99.90
22418;DHT22;11376;50.932;4.442;2023-10-19T12:40:18;18.20;99.90
22418;DHT22;11376;50.932;4.442;2023-10-19T12:42:55;18.30;99.90
22418;DHT22;11376;50.932;4.442;2023-10-19T12:45:24;18.20;99.90
22418;DHT22;11376;50.932;4.442;2023-10-19T12:47:51;18.20;99.90
22418;DHT22;11376;50.932;4.442;2023-10-19T12:50:20;18.60;99.90
22418;DHT22;11376;50.932;4.442;2023-10-19T12:52:49;19.00;99.90
22418;DHT22;11376;50.932;4.442;2023-10-19T12:55:16;19.30;99.90
22418;DHT22;11376;50.932;4.442;2023-10-19T12:57:42;19.90;99.90
22418;DHT22;11376;50.932;4.442;2023-10-19T13:00:08;20.40;99.90
22418;DHT22;11376;50.932;4.442;2023-10-19T13:02:55;21.20;99.90
22418;DHT22;11376;50.932;4.442;2023-10-19T13:05:27;22.60;99.90
22418;DHT22;11376;50.932;4.442;2023-10-19T13:07:54;23.20;99.90
22418;DHT22;11376;50.932;4.442;2023-10-19T13:10:30;22.90;99.90
22418;DHT22;11376;50.932;4.442;2023-10-19T13:13:03;23.20;99.90
22418;DHT22;11376;50.932;4.442;2023-10-19T13:15:31;23.90;99.90
22418;DHT22;11376;50.932;4.442;2023-10-19T13:17:57;24.60;99.90
22418;DHT22;11376;50.932;4.442;2023-10-19T13:20:24;25.30;99.90
22418;DHT22;11376;50.932;4.442;2023-10-19T13:22:51;26.30;99.90
22418;DHT22;11376;50.932;4.442;2023-10-19T13:25:17;27.80;99.90
22418;DHT22;11376;50.932;4.442;2023-10-19T13:27:44;27.50;99.90
22418;DHT22;11376;50.932;4.442;2023-10-19T13:30:11;25.80;99.90
22418;DHT22;11376;50.932;4.442;2023-10-19T13:32:37;26.30;99.90
22418;DHT22;11376;50.932;4.442;2023-10-19T13:35:03;26.50;99.90
22418;DHT22;11376;50.932;4.442;2023-10-19T13:37:29;26.10;99.90
22418;DHT22;11376;50.932;4.442;2023-10-19T13:39:55;25.60;99.90
22418;DHT22;11376;50.932;4.442;2023-10-19T13:42:21;25.80;99.90
22418;DHT22;11376;50.932;4.442;2023-10-19T13:44:50;25.70;99.90
22418;DHT22;11376;50.932;4.442;2023-10-19T13:47:15;25.50;99.90
22418;DHT22;11376;50.932;4.442;2023-10-19T13:49:41;23.10;99.90
22418;DHT22;11376;50.932;4.442;2023-10-19T13:52:07;22.10;99.90
22418;DHT22;11376;50.932;4.442;2023-10-19T13:54:36;21.50;99.90
22418;DHT22;11376;50.932;4.442;2023-10-19T13:57:03;21.60;99.90
22418;DHT22;11376;50.932;4.442;2023-10-19T13:59:29;21.00;99.90
22418;DHT22;11376;50.932;4.442;2023-10-19T14:01:55;21.50;99.90
22418;DHT22;11376;50.932;4.442;2023-10-19T14:04:20;21.90;99.90
22418;DHT22;11376;50.932;4.442;2023-10-19T14:06:46;22.60;99.90
22418;DHT22;11376;50.932;4.442;2023-10-19T14:09:14;22.40;99.90
22418;DHT22;11376;50.932;4.442;2023-10-19T14:11:40;23.20;99.90
22418;DHT22;11376;50.932;4.442;2023-10-19T14:14:07;23.60;99.90
22418;DHT22;11376;50.932;4.442;2023-10-19T14:16:33;23.50;99.90
22418;DHT22;11376;50.932;4.442;2023-10-19T14:18:59;22.70;99.90
22418;DHT22;11376;50.932;4.442;2023-10-19T14:21:25;22.30;99.90
22418;DHT22;11376;50.932;4.442;2023-10-19T14:23:53;21.90;99.90
22418;DHT22;11376;50.932;4.442;2023-10-19T14:26:19;22.00;99.90
22418;DHT22;11376;50.932;4.442;2023-10-19T14:28:45;21.90;99.90
22418;DHT22;11376;50.932;4.442;2023-10-19T14:31:11;22.50;99.90
22418;DHT22;11376;50.932;4.442;2023-10-19T14:33:37;23.10;99.90
22418;DHT22;11376;50.932;4.442;2023-10-19T14:36:06;23.20;99.90
22418;DHT22;11376;50.932;4.442;2023-10-19T14:38:32;23.60;99.90
22418;DHT22;11376;50.932;4.442;2023-10-19T14:40:58;23.80;99.90
22418;DHT22;11376;50.932;4.442;2023-10-19T14:43:24;23.40;99.90
22418;DHT22;11376;50.932;4.442;2023-10-19T14:45:55;23.30;99.90
22418;DHT22;11376;50.932;4.442;2023-10-19T14:48:22;23.50;99.90
22418;DHT22;11376;50.932;4.442;2023-10-19T14:50:49;23.00;99.90
22418;DHT22;11376;50.932;4.442;2023-10-19T14:53:16;22.70;99.90
22418;DHT22;11376;50.932;4.442;2023-10-19T14:55:46;23.00;99.90
22418;DHT22;11376;50.932;4.442;2023-10-19T14:58:12;22.80;99.90
22418;DHT22;11376;50.932;4.442;2023-10-19T15:00:37;22.80;99.90
22418;DHT22;11376;50.932;4.442;2023-10-19T15:03:07;22.70;99.90
22418;DHT22;11376;50.932;4.442;2023-10-19T15:05:34;22.30;99.90
22418;DHT22;11376;50.932;4.442;2023-10-19T15:08:03;21.60;99.90
22418;DHT22;11376;50.932;4.442;2023-10-19T15:10:33;21.40;99.90
22418;DHT22;11376;50.932;4.442;2023-10-19T15:12:59;21.20;99.90
22418;DHT22;11376;50.932;4.442;2023-10-19T15:15:26;20.90;99.90
22418;DHT22;11376;50.932;4.442;2023-10-19T15:17:52;20.90;99.90
22418;DHT22;11376;50.932;4.442;2023-10-19T15:20:19;20.40;99.90
22418;DHT22;11376;50.932;4.442;2023-10-19T15:22:46;20.20;99.90
22418;DHT22;11376;50.932;4.442;2023-10-19T15:25:13;19.90;99.90
22418;DHT22;11376;50.932;4.442;2023-10-19T15:27:41;19.80;99.90
22418;DHT22;11376;50.932;4.442;2023-10-19T15:30:08;19.80;99.90
22418;DHT22;11376;50.932;4.442;2023-10-19T15:32:34;19.70;99.90
22418;DHT22;11376;50.932;4.442;2023-10-19T15:35:01;19.60;99.90
22418;DHT22;11376;50.932;4.442;2023-10-19T15:37:27;19.60;99.90
22418;DHT22;11376;50.932;4.442;2023-10-19T15:39:53;19.60;99.90
22418;DHT22;11376;50.932;4.442;2023-10-19T15:42:19;19.40;99.90
22418;DHT22;11376;50.932;4.442;2023-10-19T15:44:50;19.40;99.90
22418;DHT22;11376;50.932;4.442;2023-10-19T15:47:17;19.40;99.90
22418;DHT22;11376;50.932;4.442;2023-10-19T15:49:53;19.30;99.90